Time;durP1;ratioP1;P1;durP2;ratioP2;P2;SDS_P1;SDS_P2;PMS_P1;PMS_P2;Temp;Humidity;BMP_temperature;BMP_pressure;BME280_temperature;BME280_humidity;BME280_pressure;Samples;Min_cycle;Max_cycle;Signal;HPM_P1;HPM_P2
2023/04/10 05:02:35;;;;;;;;;4.00;2.67;;;;;15.97;44.83;68528.97;4918058;28;46054;-86
2023/04/10 05:05:00;;;;;;;;;3.33;3.33;;;;;15.97;44.79;68534.31;4920522;28;45358;-86
2023/04/10 05:07:25;;;;;;;;;3.00;3.00;;;;;15.77;44.71;68506.44;4919439;28;45431;-87
2023/04/10 05:09:51;;;;;;;;;3.00;3.00;;;;;15.95;44.83;68545.25;4921284;28;45491;-86
2023/04/10 05:12:16;;;;;;;;;4.00;4.00;;;;;15.88;45.03;68484.22;4920468;28;47187;-86
2023/04/10 05:14:41;;;;;;;;;3.33;3.33;;;;;15.91;44.89;68525.09;4920547;28;45355;-86
2023/04/10 05:17:07;;;;;;;;;2.67;2.67;;;;;15.83;44.86;68499.63;4920729;28;45366;-86
2023/04/10 05:19:32;;;;;;;;;3.00;3.00;;;;;16.01;45.01;68486.31;4920782;28;45371;-86
2023/04/10 05:21:57;;;;;;;;;5.00;5.00;;;;;15.88;44.81;68508.22;4918169;28;46312;-86
2023/04/10 05:24:22;;;;;;;;;3.00;3.00;;;;;15.89;45.04;68636.81;4908472;28;51570;-86
2023/04/10 05:26:48;;;;;;;;;3.67;3.67;;;;;16.02;45.25;68506.16;4920622;28;45338;-86
2023/04/10 05:29:13;;;;;;;;;4.67;3.00;;;;;15.90;44.93;68579.94;4920778;28;45388;-87
2023/04/10 05:31:38;;;;;;;;;2.67;2.67;;;;;15.92;44.98;68611.03;4919944;28;46000;-86
2023/04/10 05:34:04;;;;;;;;;4.67;4.33;;;;;15.95;44.91;68521.25;4900777;28;59313;-86
2023/04/10 05:36:30;;;;;;;;;6.33;3.00;;;;;15.90;44.98;68507.94;4918890;28;45871;-86
2023/04/10 05:38:55;;;;;;;;;6.67;4.00;;;;;16.06;45.24;68539.63;4920172;28;45399;-87
2023/04/10 05:41:21;;;;;;;;;4.33;3.33;;;;;16.01;45.27;68507.03;4919994;28;46940;-86
2023/04/10 05:43:46;;;;;;;;;3.00;3.00;;;;;16.06;45.22;68494.31;4920178;28;45349;-86
2023/04/10 05:46:11;;;;;;;;;3.00;3.00;;;;;15.97;45.25;68534.31;4902789;28;45439;-87
2023/04/10 05:48:37;;;;;;;;;4.00;4.00;;;;;16.07;45.31;68489.56;4920064;28;45287;-82
2023/04/10 05:51:03;;;;;;;;;4.00;4.00;;;;;16.06;45.18;68552.38;4902946;28;47192;-87
2023/04/10 05:53:31;;;;;;;;;5.00;5.00;;;;;15.92;45.22;68512.34;4919939;28;45475;-86
2023/04/10 05:56:01;;;;;;;;;3.67;3.00;;;;;15.93;45.58;68450.16;4919187;28;45530;-87
2023/04/10 05:58:27;;;;;;;;;4.00;4.00;;;;;16.07;45.12;68482.13;4917469;28;45563;-86
2023/04/10 06:00:53;;;;;;;;;2.00;2.00;;;;;16.09;45.44;68494.59;4915415;28;45620;-85
2023/04/10 06:03:18;;;;;;;;;4.00;4.00;;;;;15.92;45.26;68518.31;4898678;28;45648;-85
2023/04/10 06:05:44;;;;;;;;;6.00;4.00;;;;;16.11;45.10;68443.59;4917091;28;45546;-86
2023/04/10 06:08:10;;;;;;;;;3.00;3.00;;;;;16.07;45.62;68436.78;4916112;28;45497;-85
2023/04/10 06:10:35;;;;;;;;;4.00;2.00;;;;;16.07;45.32;68500.22;4900942;28;45484;-86
2023/04/10 06:13:01;;;;;;;;;2.33;2.33;;;;;15.97;45.30;68464.97;4915920;28;45537;-86
2023/04/10 06:15:26;;;;;;;;;7.00;4.00;;;;;16.04;45.52;68444.50;4917163;28;45389;-86
2023/04/10 06:17:52;;;;;;;;;3.00;3.00;;;;;16.18;45.32;68489.84;4917364;28;45521;-85
2023/04/10 06:20:18;;;;;;;;;5.00;4.00;;;;;16.20;45.22;68528.94;4917257;28;45367;-86
2023/04/10 06:22:43;;;;;;;;;5.00;5.00;;;;;16.18;45.61;68489.84;4917996;28;45422;-86
2023/04/10 06:25:09;;;;;;;;;4.00;3.00;;;;;16.23;46.04;68498.41;4910375;28;45441;-86
2023/04/10 06:27:34;;;;;;;;;4.00;2.33;;;;;16.23;45.80;68457.81;4919057;28;45509;-86
2023/04/10 06:30:00;;;;;;;;;3.00;3.00;;;;;16.04;45.79;68419.91;4917894;28;45498;-86
2023/04/10 06:32:25;;;;;;;;;3.67;3.67;;;;;15.89;46.01;68330.75;4914817;28;45698;-86
2023/04/10 06:34:51;;;;;;;;;5.00;4.00;;;;;16.21;46.16;68468.78;4916346;28;45427;-86
2023/04/10 06:37:17;;;;;;;;;4.00;4.00;;;;;16.21;46.01;68476.78;4907342;28;45516;-86
2023/04/10 06:39:42;;;;;;;;;4.00;4.00;;;;;16.21;46.04;68456.03;4918514;28;47182;-86
2023/04/10 06:42:07;;;;;;;;;4.33;3.67;;;;;16.20;46.33;68468.19;4917796;28;45458;-86
2023/04/10 06:44:33;;;;;;;;;5.00;3.00;;;;;16.16;46.42;68446.88;4919329;28;45573;-86
2023/04/10 06:46:58;;;;;;;;;4.00;4.00;;;;;16.11;46.48;68433.53;4920848;28;45566;-86
2023/04/10 06:49:24;;;;;;;;;3.33;3.33;;;;;16.21;46.18;68482.13;4915259;28;47332;-86
2023/04/10 06:51:49;;;;;;;;;4.00;4.00;;;;;16.10;46.05;68408.34;4911716;28;45450;-87
2023/04/10 06:54:14;;;;;;;;;3.33;3.33;;;;;15.96;46.07;68427.03;4921440;28;45675;-86
2023/04/10 06:56:40;;;;;;;;;6.67;3.67;;;;;16.14;46.35;68429.06;4920524;28;45881;-86
2023/04/10 06:59:05;;;;;;;;;5.00;3.33;;;;;16.20;46.17;68411.56;4916368;28;45990;-87
2023/04/10 07:01:30;;;;;;;;;5.67;3.33;;;;;16.00;46.12;68428.50;4912496;28;45455;-87
2023/04/10 07:03:56;;;;;;;;;6.00;5.33;;;;;15.98;46.36;68368.06;4921965;28;46284;-96
2023/04/10 07:06:21;;;;;;;;;3.00;3.00;;;;;16.28;46.05;68439.72;4930296;28;45354;-96
2023/04/10 07:08:49;;;;;;;;;6.33;5.00;;;;;16.29;46.31;68419.53;4929015;28;46100;-94
2023/04/10 07:11:15;;;;;;;;;6.67;2.33;;;;;16.29;46.23;68434.97;4924840;28;45420;-95
2023/04/10 07:13:40;;;;;;;;;5.33;5.33;;;;;16.16;46.38;68401.50;4932722;28;45478;-94
2023/04/10 07:16:09;;;;;;;;;5.33;4.00;;;;;16.40;46.11;68448.59;4923791;28;45422;-96
2023/04/10 07:18:37;;;;;;;;;4.67;4.00;;;;;16.45;45.96;68421.88;4911547;28;45561;-95
2023/04/10 07:21:08;;;;;;;;;3.67;3.67;;;;;16.40;46.08;68416.56;4930656;28;45321;-95
2023/04/10 07:23:34;;;;;;;;;7.67;7.33;;;;;16.51;46.38;68439.09;4929187;28;44916;-95
2023/04/10 07:26:00;;;;;;;;;2.33;2.33;;;;;16.38;46.04;68454.22;4927234;28;45375;-92
2023/04/10 07:28:25;;;;;;;;;5.00;5.00;;;;;16.55;46.31;68423.06;4919897;28;46880;-94
2023/04/10 07:30:51;;;;;;;;;5.00;3.33;;;;;16.39;46.14;68455.41;4919832;28;45332;-89
2023/04/10 07:33:16;;;;;;;;;4.00;4.00;;;;;16.37;45.81;68546.44;4915177;28;45696;-88
2023/04/10 07:35:41;;;;;;;;;5.67;3.67;;;;;16.47;46.04;68477.63;4915226;28;45997;-92
2023/04/10 07:38:06;;;;;;;;;0.00;0.00;;;;;16.57;45.88;68475.53;4916971;28;46175;-88
2023/04/10 07:40:32;;;;;;;;;4.00;4.00;;;;;16.63;46.42;68506.66;4920253;28;50788;-87
2023/04/10 07:42:57;;;;;;;;;5.00;4.00;;;;;16.64;45.79;68531.88;4918697;28;46274;-86
2023/04/10 07:45:22;;;;;;;;;3.00;3.00;;;;;16.53;45.81;68452.09;4920131;28;45498;-91
2023/04/10 07:47:48;;;;;;;;;5.67;4.00;;;;;16.52;45.84;68518.25;4922628;28;45625;-95
2023/04/10 07:50:13;;;;;;;;;4.00;4.00;;;;;16.68;46.01;68555.91;4928910;28;49930;-93
2023/04/10 07:52:38;;;;;;;;;3.33;3.33;;;;;16.73;45.84;68470.44;4915332;28;45836;-81
2023/04/10 07:55:04;;;;;;;;;4.67;4.67;;;;;16.61;45.38;68440.81;4917599;28;45646;-84
2023/04/10 07:57:31;;;;;;;;;2.00;2.00;;;;;16.88;45.67;68474.88;4918638;28;46970;-84
2023/04/10 07:59:56;;;;;;;;;4.67;3.00;;;;;16.77;45.89;68474.59;4916013;28;45417;-84
2023/04/10 08:02:21;;;;;;;;;3.00;3.00;;;;;16.80;45.47;68486.75;4914606;28;45686;-84
2023/04/10 08:04:48;;;;;;;;;0.00;0.00;;;;;16.93;45.46;68458.84;4920923;28;45782;-84
2023/04/10 08:07:13;;;;;;;;;2.33;2.33;;;;;16.78;45.29;68454.41;4915622;28;46312;-83
2023/04/10 08:09:39;;;;;;;;;4.00;4.00;;;;;16.89;45.38;68472.78;4919369;28;46087;-84
2023/04/10 08:12:04;;;;;;;;;6.00;6.00;;;;;17.08;45.65;68489.94;4914784;28;46086;-82
2023/04/10 08:14:30;;;;;;;;;0.00;0.00;;;;;17.06;45.48;68450.16;4900915;28;45546;-85
2023/04/10 08:16:56;;;;;;;;;5.00;5.00;;;;;17.06;45.21;68484.91;4907025;28;47233;-84
2023/04/10 08:19:21;;;;;;;;;5.33;5.33;;;;;17.14;45.74;68463.78;4918070;28;45545;-84
2023/04/10 08:21:47;;;;;;;;;3.00;3.00;;;;;16.96;45.58;68473.06;4918951;28;45552;-87
2023/04/10 08:24:12;;;;;;;;;3.33;3.33;;;;;17.21;45.01;68480.13;4921925;28;46178;-87
2023/04/10 08:26:38;;;;;;;;;3.00;3.00;;;;;17.26;45.39;68526.09;4917162;28;48132;-85
2023/04/10 08:29:03;;;;;;;;;5.00;3.33;;;;;17.27;45.12;68519.84;4917903;28;46016;-86
2023/04/10 08:31:28;;;;;;;;;4.67;3.00;;;;;17.20;45.52;68482.19;4920752;28;45479;-85
2023/04/10 08:33:54;;;;;;;;;3.00;3.00;;;;;17.34;45.19;68489.56;4918649;28;45487;-87
2023/04/10 08:36:20;;;;;;;;;3.67;3.67;;;;;17.31;45.19;68518.66;4910480;28;46561;-86
2023/04/10 08:38:46;;;;;;;;;2.67;2.67;;;;;17.38;45.20;68542.41;4917429;28;45537;-86
2023/04/10 08:41:18;;;;;;;;;3.00;3.00;;;;;17.40;45.71;68529.31;4917693;28;45305;-87
2023/04/10 08:43:45;;;;;;;;;3.33;3.33;;;;;17.32;46.01;68447.09;4912090;28;45390;-83
2023/04/10 08:46:11;;;;;;;;;4.00;4.00;;;;;17.37;45.96;68469.03;4916146;28;45670;-91
2023/04/10 08:49:02;;;;;;;;;1.00;1.00;;;;;17.46;46.35;68410.78;4918853;28;45498;-87
2023/04/10 08:51:36;;;;;;;;;3.33;3.33;;;;;17.45;46.54;68382.88;4901519;28;45557;-84
2023/04/10 08:54:07;;;;;;;;;3.33;3.33;;;;;17.52;47.20;68318.38;4914822;28;45447;-84
2023/04/10 08:56:34;;;;;;;;;2.00;2.00;;;;;17.47;47.37;68267.63;4914310;28;46379;-85
2023/04/10 08:59:02;;;;;;;;;4.67;4.00;;;;;17.53;47.95;68252.72;4913307;28;45550;-84
2023/04/10 09:01:28;;;;;;;;;5.00;3.33;;;;;17.42;48.53;68106.09;4920757;28;45530;-85
2023/04/10 09:03:53;;;;;;;;;3.33;2.33;;;;;17.39;48.64;67979.63;4913452;28;45589;-85
2023/04/10 09:06:19;;;;;;;;;2.00;2.00;;;;;17.51;48.23;68039.19;4916142;28;46194;-85
2023/04/10 09:08:44;;;;;;;;;3.00;3.00;;;;;17.56;48.98;67825.88;4915255;28;47155;-85
2023/04/10 09:11:11;;;;;;;;;1.00;1.00;;;;;17.41;49.58;67683.25;4910807;28;45553;-85
2023/04/10 09:13:40;;;;;;;;;5.00;2.00;;;;;17.58;49.21;67780.06;4911404;28;45515;-84
2023/04/10 09:16:07;;;;;;;;;2.67;2.67;;;;;17.46;48.35;67836.09;4908729;28;46544;-86
2023/04/10 09:18:50;;;;;;;;;3.00;3.00;;;;;17.63;49.02;67763.97;4914942;28;45520;-82
2023/04/10 09:21:18;;;;;;;;;2.00;2.00;;;;;17.49;49.94;67553.06;4914954;28;45566;-83
2023/04/10 09:23:45;;;;;;;;;3.00;3.00;;;;;17.52;49.41;67482.31;4917722;28;45491;-82
2023/04/10 09:26:30;;;;;;;;;2.33;1.33;;;;;17.61;49.37;67507.69;4915352;28;45631;-84
2023/04/10 09:28:59;;;;;;;;;2.33;2.33;;;;;17.51;49.18;67595.47;4914224;28;45457;-87
2023/04/10 09:31:28;;;;;;;;;3.67;1.00;;;;;17.60;48.70;67638.06;4916139;28;45518;-84
2023/04/10 09:36:28;;;;;;;;;1.00;1.00;;;;;17.51;49.26;67485.88;5192844;23;45598;-84
2023/04/10 09:38:54;;;;;;;;;3.00;3.00;;;;;17.76;49.16;67458.34;4929891;28;59420;-84
2023/04/10 09:41:20;;;;;;;;;2.00;2.00;;;;;17.66;48.70;67538.16;4933603;28;45450;-84
2023/04/10 09:43:45;;;;;;;;;1.33;1.33;;;;;17.70;48.84;67528.88;4925035;28;45956;-84
2023/04/10 09:46:11;;;;;;;;;2.00;2.00;;;;;17.89;48.42;67558.53;4931743;28;47001;-81
2023/04/10 09:48:37;;;;;;;;;2.33;1.00;;;;;17.91;48.33;67598.28;4936862;28;45252;-81
2023/04/10 09:51:03;;;;;;;;;2.33;2.33;;;;;17.80;48.74;67577.97;4910726;28;45534;-82
2023/04/10 09:53:28;;;;;;;;;3.00;3.00;;;;;17.91;48.63;67614.94;4935721;28;45342;-86
2023/04/10 09:55:55;;;;;;;;;2.00;2.00;;;;;17.97;47.86;67660.88;4932056;28;45638;-87
2023/04/10 09:58:22;;;;;;;;;3.67;3.00;;;;;17.98;48.09;67691.47;4936837;28;45703;-86
2023/04/10 10:00:48;;;;;;;;;1.00;1.00;;;;;17.94;47.50;67687.38;4940492;28;45713;-89
2023/04/10 10:03:16;;;;;;;;;1.00;1.00;;;;;17.99;47.49;67730.69;4937700;28;45550;-87
2023/04/10 10:05:44;;;;;;;;;1.67;1.67;;;;;17.79;47.51;67755.38;4941446;28;46065;-90
2023/04/10 10:08:11;;;;;;;;;4.00;2.00;;;;;18.00;47.23;67814.19;4938593;28;45410;-85
2023/04/10 10:10:59;;;;;;;;;3.00;3.00;;;;;17.98;47.36;67857.91;4937661;28;45591;-84
2023/04/10 10:13:30;;;;;;;;;3.00;2.00;;;;;17.99;47.00;67791.63;4938417;28;45442;-85
2023/04/10 10:16:11;;;;;;;;;2.00;2.00;;;;;18.00;47.18;67886.41;4938214;28;46422;-84
2023/04/10 10:18:50;;;;;;;;;1.33;1.33;;;;;18.00;46.85;67972.59;4930567;28;45561;-84
2023/04/10 10:21:15;;;;;;;;;3.33;3.00;;;;;17.97;46.77;67944.44;4933878;28;45683;-84
2023/04/10 10:23:43;;;;;;;;;2.00;2.00;;;;;17.87;46.91;67987.34;4935868;28;45516;-83
2023/04/10 10:26:09;;;;;;;;;2.00;2.00;;;;;17.98;46.57;68015.75;4935102;28;47621;-81
2023/04/10 10:28:35;;;;;;;;;2.67;2.00;;;;;17.84;45.92;68053.38;4938381;28;45386;-81
2023/04/10 10:31:02;;;;;;;;;2.67;1.67;;;;;17.80;46.01;68117.59;4936427;28;45509;-82
2023/04/10 10:33:29;;;;;;;;;3.33;3.00;;;;;17.84;45.77;68116.94;4938010;28;45548;-81
2023/04/10 10:35:59;;;;;;;;;2.00;2.00;;;;;17.92;44.66;68257.44;4937703;28;46098;-83
2023/04/10 10:38:26;;;;;;;;;1.00;1.00;;;;;17.60;45.20;68190.88;4932905;28;45349;-81
2023/04/10 10:41:01;;;;;;;;;2.33;1.33;;;;;17.90;44.47;68268.47;4926526;28;45342;-80
2023/04/10 10:43:44;;;;;;;;;2.00;2.00;;;;;17.85;45.12;68243.84;4938454;28;45420;-82
2023/04/10 10:46:21;;;;;;;;;2.00;2.00;;;;;17.77;44.80;68264.41;4936000;28;45783;-81
2023/04/10 10:48:56;;;;;;;;;2.33;2.33;;;;;17.90;44.81;68319.28;4925237;28;45453;-83
2023/04/10 10:51:22;;;;;;;;;2.67;2.00;;;;;17.91;45.18;68264.88;4931593;28;45933;-81
2023/04/10 10:53:47;;;;;;;;;1.67;1.33;;;;;17.77;45.13;68239.72;4936370;28;45520;-80
2023/04/10 10:56:19;;;;;;;;;3.33;3.00;;;;;17.94;44.14;68340.06;4935282;28;63042;-83
2023/04/10 10:58:52;;;;;;;;;2.00;2.00;;;;;17.84;43.93;68342.22;4933150;28;45540;-82
2023/04/10 11:01:20;;;;;;;;;3.67;2.00;;;;;17.87;44.25;68308.31;4940161;28;45644;-84
2023/04/10 11:03:46;;;;;;;;;1.67;1.67;;;;;18.01;44.43;68294.81;4939873;28;45694;-82
2023/04/10 11:06:41;;;;;;;;;2.00;2.00;;;;;17.87;44.16;68369.84;4932789;28;46967;-82
2023/04/10 11:09:06;;;;;;;;;1.00;1.00;;;;;18.05;44.03;68395.25;4931650;28;45482;-84
2023/04/10 11:11:58;;;;;;;;;3.00;3.00;;;;;18.01;45.32;68246.66;4938149;28;45542;-80
2023/04/10 11:14:23;;;;;;;;;3.33;3.33;;;;;18.08;46.60;68067.03;4907276;28;45556;-83
2023/04/10 11:16:49;;;;;;;;;3.33;3.33;;;;;18.08;46.38;68064.94;4936363;28;46202;-84
2023/04/10 11:19:16;;;;;;;;;4.33;3.00;;;;;18.14;46.34;68104.13;4931864;28;45761;-83
2023/04/10 11:22:02;;;;;;;;;4.00;4.00;;;;;18.19;45.97;68096.03;4933524;28;45742;-83
2023/04/10 11:24:29;;;;;;;;;2.00;2.00;;;;;18.21;46.22;68092.44;4932350;28;45472;-81
2023/04/10 11:26:55;;;;;;;;;2.00;2.00;;;;;18.26;46.77;68042.72;4938136;28;46277;-81
2023/04/10 11:29:26;;;;;;;;;2.00;2.00;;;;;18.30;46.20;68089.63;4937267;28;45473;-88
2023/04/10 11:31:56;;;;;;;;;3.33;2.00;;;;;18.18;46.33;68005.94;4938323;28;45690;-82
2023/04/10 11:34:21;;;;;;;;;1.00;1.00;;;;;18.20;46.56;68041.00;4937422;28;45379;-84
2023/04/10 11:36:47;;;;;;;;;1.00;1.00;;;;;18.16;45.86;68126.69;4936338;28;46336;-85
2023/04/10 11:39:17;;;;;;;;;1.00;1.00;;;;;18.18;45.54;68161.75;4937313;28;45546;-83
2023/04/10 11:41:50;;;;;;;;;3.00;1.00;;;;;18.17;45.68;68208.13;4938105;28;45513;-84
2023/04/10 11:44:28;;;;;;;;;1.67;1.67;;;;;18.32;45.57;68167.50;4937402;28;45717;-84
2023/04/10 11:46:54;;;;;;;;;1.00;1.00;;;;;18.25;44.79;68202.09;4933589;28;45941;-84
2023/04/10 11:49:22;;;;;;;;;1.00;1.00;;;;;18.32;45.26;68255.84;4937735;28;45648;-83
2023/04/10 11:51:49;;;;;;;;;1.00;1.00;;;;;18.29;45.34;68265.69;4935347;28;45656;-84
2023/04/10 11:54:19;;;;;;;;;5.00;3.00;;;;;18.23;44.49;68276.75;4940399;28;45576;-85
2023/04/10 11:57:01;;;;;;;;;3.00;3.00;;;;;18.34;44.70;68282.28;4941699;28;46609;-85
2023/04/10 12:48:31;;;;;;;;;1.67;1.67;;;;;18.41;43.71;68425.91;5354796;23;46726;-92
2023/04/10 12:50:57;;;;;;;;;0.67;0.67;;;;;18.27;44.05;68479.56;4930452;28;45551;-87
2023/04/10 12:53:23;;;;;;;;;1.00;1.00;;;;;18.48;44.15;68404.72;4937683;28;45647;-86
2023/04/10 12:55:59;;;;;;;;;1.00;1.00;;;;;18.49;44.27;68416.63;4934506;28;45731;-86
2023/04/10 12:58:29;;;;;;;;;1.67;1.67;;;;;18.36;44.74;68455.41;4930793;28;47029;-89
2023/04/10 13:00:56;;;;;;;;;1.00;1.00;;;;;18.45;44.46;68369.66;4929873;28;45567;-87
2023/04/10 13:03:22;;;;;;;;;1.00;1.00;;;;;18.45;44.76;68326.81;4932781;28;45484;-85
2023/04/10 13:05:47;;;;;;;;;0.00;0.00;;;;;18.55;44.79;68354.09;4935284;28;45370;-85
2023/04/10 13:08:13;;;;;;;;;1.00;1.00;;;;;18.66;44.92;68356.38;4934857;28;46451;-87
2023/04/10 13:10:40;;;;;;;;;0.00;0.00;;;;;18.59;44.62;68363.56;4933491;28;46817;-92
2023/04/10 13:13:06;;;;;;;;;1.67;1.00;;;;;18.66;44.73;68312.91;4948303;28;45408;-90
2023/04/10 13:15:33;;;;;;;;;1.00;1.00;;;;;18.70;45.17;68355.13;4935594;28;45465;-91
2023/04/10 13:17:59;;;;;;;;;1.33;1.33;;;;;18.44;45.55;68339.00;4938699;28;46237;-91
2023/04/10 13:20:24;;;;;;;;;1.00;1.00;;;;;18.73;45.42;68286.34;4938756;28;45400;-90
2023/04/10 13:22:50;;;;;;;;;1.00;1.00;;;;;18.68;45.35;68277.78;4944404;28;45318;-89
2023/04/10 13:25:15;;;;;;;;;1.00;1.00;;;;;18.66;45.50;68312.91;4934430;28;45496;-89
2023/04/10 13:27:40;;;;;;;;;1.33;1.00;;;;;18.73;45.85;68209.28;4931189;28;46437;-90
2023/04/10 13:30:06;;;;;;;;;1.00;1.00;;;;;18.80;45.56;68230.34;4937698;28;45601;-89
2023/04/10 13:32:32;;;;;;;;;1.67;1.67;;;;;18.88;45.49;68234.41;4931999;28;45437;-91
2023/04/10 13:34:57;;;;;;;;;1.00;1.00;;;;;18.79;45.48;68167.53;4950951;28;45368;-88
2023/04/10 13:37:23;;;;;;;;;2.33;1.67;;;;;18.85;46.00;68126.41;4939785;28;46787;-91
2023/04/10 13:39:48;;;;;;;;;0.00;0.00;;;;;18.93;46.09;68055.41;4940505;28;45337;-87
2023/04/10 13:42:14;;;;;;;;;3.00;2.00;;;;;18.91;47.49;67921.78;4940008;28;45326;-89
2023/04/10 13:44:39;;;;;;;;;0.67;0.67;;;;;18.92;47.09;67898.28;4940117;28;45539;-83
2023/04/10 13:47:05;;;;;;;;;0.00;0.00;;;;;18.80;47.30;67919.63;4937613;28;46938;-82
2023/04/10 13:49:30;;;;;;;;;1.00;1.00;;;;;18.76;47.78;67743.50;4939179;28;45387;-84
2023/04/10 13:51:56;;;;;;;;;0.00;0.00;;;;;18.87;47.44;67779.91;4945688;28;46040;-81
2023/04/10 13:54:22;;;;;;;;;1.67;1.00;;;;;18.94;48.44;67512.78;4942206;28;45550;-79
2023/04/10 13:56:49;;;;;;;;;1.00;1.00;;;;;18.94;48.84;67380.91;4937393;28;46069;-86
2023/04/10 13:59:14;;;;;;;;;1.00;1.00;;;;;18.93;48.86;67355.66;4942461;28;45696;-87
2023/04/10 14:01:39;;;;;;;;;1.00;1.00;;;;;18.77;49.75;66989.50;4938442;28;45421;-86
2023/04/10 14:04:05;;;;;;;;;0.00;0.00;;;;;18.86;49.82;66841.34;4939921;28;45402;-87
2023/04/10 14:06:30;;;;;;;;;0.33;0.33;;;;;18.81;49.57;66943.25;4942406;28;45574;-90
2023/04/10 14:08:55;;;;;;;;;2.00;2.00;;;;;18.80;50.36;66468.16;4947093;28;45463;-92
2023/04/10 14:11:21;;;;;;;;;0.67;0.67;;;;;18.72;50.86;66298.31;4945885;28;51564;-94
2023/04/10 14:13:47;;;;;;;;;1.00;1.00;;;;;18.79;50.75;66070.19;4943857;28;45386;-88
2023/04/10 14:16:13;;;;;;;;;0.00;0.00;;;;;18.75;51.54;65437.09;4935892;28;46086;-87
2023/04/10 14:18:38;;;;;;;;;0.00;0.00;;;;;18.73;51.96;64958.44;4936838;28;45402;-86
2023/04/10 14:21:03;;;;;;;;;1.33;1.33;;;;;18.72;51.59;65155.38;4938100;28;45442;-93
2023/04/10 14:23:29;;;;;;;;;2.00;2.00;;;;;18.62;52.64;63439.97;4939831;28;45583;-86
2023/04/10 14:25:54;;;;;;;;;1.33;1.33;;;;;18.66;53.13;62874.63;4933278;28;47054;-90
2023/04/10 14:28:19;;;;;;;;;0.00;0.00;;;;;18.63;54.14;59877.75;4939064;28;45699;-87
2023/04/10 14:30:47;;;;;;;;;1.00;1.00;;;;;18.62;54.08;59219.38;4941501;28;45485;-85
2023/04/10 14:33:13;;;;;;;;;1.00;1.00;;;;;18.46;54.52;56647.94;4940052;28;45580;-86
2023/04/10 14:35:38;;;;;;;;;2.00;2.00;;;;;18.41;58.03;29528.69;4939545;28;45583;-90
2023/04/10 14:38:03;;;;;;;;;0.00;0.00;;;;;18.37;56.98;30234.34;4940219;28;45517;-85
2023/04/10 14:40:29;;;;;;;;;1.00;0.33;;;;;18.51;57.41;27498.31;4945105;28;45777;-82
2023/04/10 14:42:54;;;;;;;;;2.67;1.00;;;;;18.34;58.22;19021.53;4938992;28;45583;-80
2023/04/10 14:45:19;;;;;;;;;1.00;1.00;;;;;18.38;59.98;6185.19;4930752;28;45994;-83
2023/04/10 14:47:46;;;;;;;;;2.00;2.00;;;;;18.22;61.08;454.81;4931138;28;45505;-82
2023/04/10 14:50:11;;;;;;;;;1.00;1.00;;;;;18.34;62.38;-8290.00;4935642;28;45525;-83
2023/04/10 14:52:37;;;;;;;;;2.00;0.67;;;;;18.28;61.54;-6945.50;4933854;28;45515;-81
2023/04/10 14:55:02;;;;;;;;;1.00;1.00;;;;;18.22;62.10;-10304.03;4931807;28;45475;-79
2023/04/10 14:57:30;;;;;;;;;1.67;1.00;;;;;18.19;62.01;-10303.69;4938534;28;47056;-82
2023/04/10 14:59:56;;;;;;;;;0.00;0.00;;;;;18.09;61.34;-8288.06;4939578;28;45766;-90
2023/04/10 15:02:21;;;;;;;;;0.00;0.00;;;;;18.12;61.99;-10303.00;4935340;28;45898;-88
2023/04/10 15:04:46;;;;;;;;;1.67;1.67;;;;;18.11;63.61;-13993.59;4935724;28;47098;-91
2023/04/10 15:07:13;;;;;;;;;0.00;0.00;;;;;18.01;63.87;-15668.13;4942145;28;45585;-93
2023/04/10 15:09:39;;;;;;;;;1.00;1.00;;;;;18.03;65.09;-19018.78;4939153;28;45445;-90
2023/04/10 15:12:05;;;;;;;;;1.00;1.00;;;;;17.93;66.04;-19351.03;4939371;28;45527;-93
2023/04/10 15:14:31;;;;;;;;;1.00;1.00;;;;;17.99;64.61;-18682.91;4947891;28;47460;-93
2023/04/10 15:16:56;;;;;;;;;3.00;1.00;;;;;17.73;65.42;-19345.94;4930814;28;45508;-92
2023/04/10 15:19:22;;;;;;;;;0.00;0.00;;;;;17.68;65.18;-19344.75;4935342;28;45338;-94
2023/04/10 15:21:47;;;;;;;;;1.00;1.00;;;;;17.43;65.05;-19003.78;4942714;28;45435;-95
2023/04/10 15:24:12;;;;;;;;;1.00;1.00;;;;;17.51;64.43;-18336.44;4943091;28;46537;-94
2023/04/10 15:26:44;;;;;;;;;3.00;1.00;;;;;17.91;64.33;-18346.03;4944822;28;45428;-95
2023/04/10 15:29:09;;;;;;;;;0.00;0.00;;;;;17.11;64.76;-18661.28;4944142;28;45369;-93
2023/04/10 15:31:35;;;;;;;;;1.33;0.67;;;;;17.71;65.00;-19345.53;4945320;28;45588;-94
2023/04/10 15:34:00;;;;;;;;;1.00;1.00;;;;;17.88;66.68;-19686.44;4943863;28;45474;-93
2023/04/10 15:36:26;;;;;;;;;0.00;0.00;;;;;17.41;67.60;-19674.13;4942606;28;45373;-89
2023/04/10 15:38:52;;;;;;;;;1.00;0.00;;;;;16.90;66.86;-19660.88;4942026;28;45351;-94
2023/04/10 15:41:17;;;;;;;;;1.00;1.00;;;;;17.58;68.11;-19678.53;4945842;28;45314;-90
2023/04/10 15:43:43;;;;;;;;;0.33;0.33;;;;;17.73;65.97;-19682.56;4944864;28;45985;-93
2023/04/10 15:46:08;;;;;;;;;1.67;1.67;;;;;17.81;69.70;-19684.56;4932363;28;45528;-91
2023/04/10 15:48:34;;;;;;;;;2.00;0.00;;;;;17.57;69.88;-19678.41;4945056;28;45420;-90
2023/04/10 15:51:04;;;;;;;;;1.67;1.67;;;;;17.77;68.28;-19683.50;4943339;28;45349;-93
2023/04/10 15:53:29;;;;;;;;;1.00;1.00;;;;;17.69;68.75;-19681.50;4940360;28;46373;-91
2023/04/10 15:55:55;;;;;;;;;2.33;1.00;;;;;17.60;67.17;-19679.22;4948916;28;45476;-92
2023/04/10 15:58:20;;;;;;;;;2.67;2.67;;;;;17.57;67.43;-19678.41;4941657;28;45448;-90
2023/04/10 16:00:45;;;;;;;;;2.00;2.00;;;;;17.64;68.65;-19680.16;4939693;28;45621;-89
2023/04/10 16:03:11;;;;;;;;;1.00;1.00;;;;;17.73;68.14;-19682.56;4940551;28;45440;-90
2023/04/10 16:05:36;;;;;;;;;4.00;1.00;;;;;17.36;67.27;-19672.78;4939169;28;45381;-88
2023/04/10 16:08:02;;;;;;;;;1.67;0.67;;;;;17.25;67.18;-19669.97;4940553;28;45426;-91
2023/04/10 16:10:27;;;;;;;;;2.00;2.00;;;;;17.72;67.97;-19682.28;4936474;28;45428;-88
2023/04/10 16:12:55;;;;;;;;;1.33;1.00;;;;;17.75;67.90;-19683.09;4939735;28;45566;-88
2023/04/10 16:15:21;;;;;;;;;1.00;1.00;;;;;17.75;68.31;-19682.97;4939839;28;45409;-87
2023/04/10 16:17:46;;;;;;;;;1.00;1.00;;;;;17.72;69.70;-19682.28;4939108;28;45406;-87
2023/04/10 16:20:15;;;;;;;;;1.00;1.00;;;;;17.44;69.34;-19674.94;4940405;28;45842;-89
2023/04/10 16:22:40;;;;;;;;;0.33;0.33;;;;;17.40;68.15;-19673.88;4939468;28;45503;-91
2023/04/10 16:25:06;;;;;;;;;1.00;1.00;;;;;17.57;71.24;-19678.28;4933817;28;46263;-86
2023/04/10 16:27:32;;;;;;;;;4.00;3.00;;;;;17.59;71.98;-19678.94;4941838;28;45440;-88
2023/04/10 16:29:57;;;;;;;;;1.33;0.00;;;;;17.69;71.84;-19681.50;4943699;28;45576;-89
2023/04/10 16:32:22;;;;;;;;;0.67;0.67;;;;;17.64;71.74;-19680.16;4940406;28;53032;-93
2023/04/10 16:34:48;;;;;;;;;1.00;1.00;;;;;17.66;71.33;-19680.81;4940193;28;45506;-88
2023/04/10 16:37:13;;;;;;;;;0.33;0.33;;;;;17.54;70.25;-19677.63;4938202;28;45499;-90
2023/04/10 16:39:38;;;;;;;;;1.00;1.00;;;;;17.67;73.05;-19680.97;4939555;28;45498;-89
2023/04/10 16:42:04;;;;;;;;;0.00;0.00;;;;;17.60;72.85;-19679.22;4938600;28;46817;-88
2023/04/10 16:44:30;;;;;;;;;0.00;0.00;;;;;17.64;71.64;-19680.16;4939201;28;45925;-89
2023/04/10 16:46:56;;;;;;;;;2.00;0.33;;;;;17.63;70.64;-19680.03;4935589;28;45811;-86
2023/04/10 16:49:21;;;;;;;;;1.00;1.00;;;;;17.40;71.49;-19673.88;4938639;28;45648;-92
2023/04/10 16:51:48;;;;;;;;;0.00;0.00;;;;;17.51;70.95;-19676.81;4939550;28;47169;-88
2023/04/10 16:54:13;;;;;;;;;3.67;2.00;;;;;17.59;71.76;-19678.94;4938533;28;45537;-85
2023/04/10 16:56:38;;;;;;;;;0.00;0.00;;;;;17.33;76.04;-19672.00;4938960;28;45410;-87
2023/04/10 16:59:04;;;;;;;;;0.00;0.00;;;;;17.46;78.18;-19675.59;4940109;28;45531;-86
2023/04/10 17:01:30;;;;;;;;;2.00;1.00;;;;;17.41;78.76;-19674.28;4940267;28;46405;-90
2023/04/10 17:03:57;;;;;;;;;0.00;0.00;;;;;17.06;81.34;-19665.16;4939366;28;45701;-87
2023/04/10 17:06:23;;;;;;;;;0.00;0.00;;;;;16.75;80.19;-19657.00;4939836;28;53875;-89
2023/04/10 17:08:48;;;;;;;;;0.00;0.00;;;;;16.79;79.27;-19658.06;4941834;28;48287;-96
2023/04/10 17:11:13;;;;;;;;;0.00;0.00;;;;;16.91;79.91;-19661.16;4945184;28;46273;-90
2023/04/10 17:13:40;;;;;;;;;0.00;0.00;;;;;16.85;79.53;-19659.69;4946216;28;45255;-96
2023/04/10 17:16:07;;;;;;;;;0.00;0.00;;;;;16.73;78.78;-19656.47;4944013;28;45447;-95
2023/04/10 17:18:32;;;;;;;;;0.00;0.00;;;;;16.68;79.19;-19655.13;4936190;28;45656;-91
2023/04/10 17:20:58;;;;;;;;;0.00;0.00;;;;;16.60;78.03;-19652.97;4923354;28;46298;-90
2023/04/10 17:23:23;;;;;;;;;0.00;0.00;;;;;16.56;79.17;-19652.03;4933789;28;45564;-90